You are not logged in, Click here to log in
臺中清泉崗機場RMQ / RCMQ 臺灣臺中市
ICAO: RCMQ Country: 臺灣臺中市
Latitude: 24.255 Longitude: 120.601
Total Arrivals: 70 Total Departures: 68
Latest Arrival: B715211 (RCYU-RCMQ)KE. CHIH-HAO Latest Departure: AE15419 (RCMQ-RCTP)KE. CHIH-HAO
Scenery:
METAR : RCMQ 241330Z 01006KT 9999 FEW012 BKN060 21/15 Q1013 RMK A2994

臺中清泉崗機場RMQ

You are accessing this site from IP address 54.236.35.159. Virtual Airline. CMS by phpVMS.Website designed by Zumeweb and edited by Theo Bearman.
There is 0 User(s) Online: | and 10 Guest(s) Online.
All information on this site is for fight simulation purposes only. This site is for flight logging for pilots of Virtual Airline&模擬飛行論壇 FlySim only.